createdAt,value
2022-11-24T04:46:26.954Z,5.54
2022-11-24T04:49:30.081Z,5.54
2022-11-24T04:52:32.386Z,5.11
2022-11-24T04:55:34.910Z,5.14
2022-11-24T04:58:37.582Z,5.21
2022-11-24T05:01:42.434Z,5.19
2022-11-24T05:04:45.678Z,5.21
2022-11-24T05:07:48.396Z,5.39
2022-11-24T05:10:50.809Z,5.45
2022-11-24T05:13:53.684Z,5.44
2022-11-24T05:16:56.057Z,5.47
2022-11-24T05:19:58.810Z,5.38
2022-11-24T05:23:06.076Z,5.47
2022-11-24T05:26:08.780Z,5.53
2022-11-24T05:29:11.150Z,5.59
2022-11-24T05:32:13.939Z,5.65
2022-11-24T05:35:16.991Z,5.69
2022-11-24T05:38:19.823Z,5.78
2022-11-24T05:41:22.111Z,5.75
2022-11-24T05:44:24.733Z,5.81
2022-11-24T05:47:26.995Z,5.84
2022-11-24T05:50:29.724Z,5.93
2022-11-24T05:53:32.174Z,5.99
2022-11-24T05:56:34.747Z,5.94
2022-11-24T05:59:37.151Z,5.91
2022-11-24T06:02:40.060Z,5.86
2022-11-24T06:05:46.891Z,5.77
2022-11-24T06:08:49.307Z,5.78
2022-11-24T06:11:51.863Z,5.71
2022-11-24T06:14:54.194Z,5.65
2022-11-24T06:17:56.912Z,5.68
2022-11-24T06:21:10.928Z,5.64
2022-11-24T06:24:14.757Z,5.63
2022-11-24T06:27:17.742Z,5.66
2022-11-24T06:30:20.430Z,5.61
2022-11-24T06:33:22.678Z,5.55
2022-11-24T06:36:25.619Z,5.58
2022-11-24T06:39:27.930Z,5.63
2022-11-24T06:42:31.229Z,5.63
2022-11-24T06:45:34.089Z,5.59
2022-11-24T06:48:37.228Z,5.66
2022-11-24T06:51:39.835Z,5.68
2022-11-24T06:54:43.428Z,5.73
2022-11-24T06:57:45.768Z,5.80
2022-11-24T07:00:48.365Z,5.81
2022-11-24T07:03:53.074Z,5.78
2022-11-24T07:06:55.607Z,5.79
2022-11-24T07:09:58.136Z,5.94
2022-11-24T07:13:03.737Z,6.00
2022-11-24T07:16:16.612Z,6.08
2022-11-24T07:19:24.720Z,6.07
2022-11-24T07:22:27.817Z,6.13
2022-11-24T07:25:30.516Z,6.14
2022-11-24T07:28:33.330Z,6.20
2022-11-24T07:31:35.984Z,6.33
2022-11-24T07:34:39.455Z,6.41
2022-11-24T07:37:42.245Z,6.47
2022-11-24T07:40:44.556Z,6.60
2022-11-24T07:43:48.584Z,6.76
2022-11-24T07:46:51.307Z,6.87
2022-11-24T07:49:53.820Z,6.89
2022-11-24T07:53:00.602Z,6.88
2022-11-24T07:56:05.560Z,6.88
2022-11-24T07:59:08.032Z,6.95
2022-11-24T08:02:13.009Z,6.96
2022-11-24T08:05:15.640Z,6.96
2022-11-24T08:08:17.958Z,6.94
2022-11-24T08:11:20.557Z,6.97
2022-11-24T08:14:22.854Z,7.04
2022-11-24T08:17:25.560Z,7.12
2022-11-24T08:20:28.403Z,7.20
2022-11-24T08:23:31.187Z,7.23
2022-11-24T08:26:33.489Z,7.29
2022-11-24T08:29:36.142Z,7.33
2022-11-24T08:32:38.461Z,7.24
2022-11-24T08:35:41.013Z,7.22
2022-11-24T08:38:44.786Z,7.18
2022-11-24T08:41:47.614Z,7.20
2022-11-24T08:44:49.880Z,7.19
2022-11-24T08:47:54.265Z,7.24
2022-11-24T08:50:57.349Z,7.29
2022-11-24T08:54:00.893Z,7.34
2022-11-24T08:57:03.123Z,7.33
2022-11-24T09:00:06.373Z,7.36
2022-11-24T09:03:12.482Z,7.52
2022-11-24T09:06:16.093Z,7.50
2022-11-24T09:09:18.450Z,7.57
2022-11-24T09:12:21.188Z,7.68
2022-11-24T09:15:23.441Z,7.78
2022-11-24T09:18:30.094Z,7.90
2022-11-24T09:21:34.283Z,7.75
2022-11-24T09:24:37.044Z,7.72
2022-11-24T09:27:39.454Z,7.80
2022-11-24T09:30:42.055Z,7.71
2022-11-24T09:33:45.108Z,7.77
2022-11-24T09:36:47.657Z,7.80
2022-11-24T09:39:50.140Z,7.75
2022-11-24T09:42:55.622Z,7.82
2022-11-24T09:46:13.005Z,7.93
2022-11-24T09:49:22.137Z,8.12
2022-11-24T09:53:01.011Z,8.22
2022-11-24T09:56:15.445Z,8.38
2022-11-24T09:59:22.650Z,8.13
2022-11-24T10:02:25.275Z,8.17
2022-11-24T10:05:30.531Z,7.94
2022-11-24T10:08:59.249Z,7.78
2022-11-24T10:12:46.661Z,7.72
2022-11-24T10:16:18.210Z,7.52
2022-11-24T10:19:40.252Z,7.42
2022-11-24T10:23:25.987Z,7.40
2022-11-24T10:26:36.721Z,7.41
2022-11-24T10:29:43.422Z,7.36
2022-11-24T10:32:48.842Z,7.42
2022-11-24T10:36:07.662Z,7.45
2022-11-24T10:39:20.593Z,7.39
2022-11-24T10:42:36.845Z,7.35
2022-11-24T10:45:40.396Z,7.39
2022-11-24T10:48:53.640Z,7.49
2022-11-24T10:52:05.785Z,7.55
2022-11-24T10:55:08.461Z,7.59
2022-11-24T10:58:17.458Z,7.68
2022-11-24T11:01:32.817Z,7.81
2022-11-24T11:04:35.838Z,7.75
2022-11-24T11:07:38.240Z,7.82
2022-11-24T11:10:42.477Z,7.87
2022-11-24T11:14:03.965Z,7.97
2022-11-24T11:17:32.775Z,8.11
2022-11-24T11:20:35.198Z,8.23
2022-11-24T11:23:39.962Z,8.29
2022-11-24T11:26:42.997Z,8.31
2022-11-24T11:36:48.183Z,8.38
2022-11-24T11:39:53.389Z,8.41
2022-11-24T11:43:21.896Z,8.42
2022-11-24T11:46:25.050Z,8.28
2022-11-24T11:49:27.694Z,8.30
2022-11-24T11:52:48.968Z,8.27
2022-11-24T11:56:06.810Z,8.35
2022-11-24T11:59:33.044Z,8.35
2022-11-24T12:02:53.437Z,8.39
2022-11-24T12:06:21.963Z,8.38
2022-11-24T12:09:41.426Z,8.22
2022-11-24T12:12:46.886Z,8.25
2022-11-24T12:15:52.614Z,8.18
2022-11-24T12:19:22.354Z,8.16
2022-11-24T12:22:32.968Z,8.08
2022-11-24T12:25:42.497Z,7.93
2022-11-24T12:29:12.589Z,7.87
2022-11-24T12:32:52.452Z,7.75
2022-11-24T12:36:10.668Z,7.67
2022-11-24T12:39:34.389Z,7.66
2022-11-24T12:42:55.425Z,7.77
2022-11-24T12:46:23.174Z,8.54
2022-11-24T12:49:38.097Z,8.37
2022-11-24T12:52:46.596Z,8.27
2022-11-24T12:55:49.202Z,8.79
2022-11-24T12:59:11.513Z,8.73
2022-11-24T13:02:25.144Z,8.28
2022-11-24T13:05:47.217Z,8.05
2022-11-24T13:08:50.139Z,7.99
2022-11-24T13:11:59.155Z,7.90
2022-11-24T13:18:53.368Z,7.92
2022-11-24T13:22:23.949Z,7.86
2022-11-24T13:25:34.508Z,7.85
2022-11-24T13:29:06.171Z,7.85
2022-11-24T13:32:11.827Z,7.83
2022-11-24T13:35:16.610Z,7.82
2022-11-24T13:38:58.906Z,7.82
2022-11-24T13:42:01.760Z,7.86
2022-11-24T13:45:25.729Z,7.92
2022-11-24T13:48:28.084Z,7.94
2022-11-24T13:51:31.000Z,7.93
2022-11-24T13:54:33.838Z,7.90
2022-11-24T13:57:49.148Z,7.96
2022-11-24T14:01:25.485Z,7.94
2022-11-24T14:04:31.115Z,7.93
2022-11-24T14:07:34.394Z,8.00
2022-11-24T14:10:40.597Z,7.92
2022-11-24T14:13:43.488Z,8.07
2022-11-24T14:16:46.057Z,8.07
2022-11-24T14:19:50.765Z,8.13
2022-11-24T14:22:54.082Z,8.16
2022-11-24T14:25:56.431Z,8.10
2022-11-24T14:29:12.105Z,7.99
2022-11-24T14:32:16.367Z,7.99
2022-11-24T14:35:36.111Z,7.95
2022-11-24T14:38:38.585Z,7.87
2022-11-24T14:41:43.981Z,7.88
2022-11-24T14:44:51.734Z,7.79
2022-11-24T14:47:55.640Z,7.85
2022-11-24T14:51:06.014Z,7.88
2022-11-24T14:54:18.022Z,7.81
2022-11-24T14:57:22.770Z,7.72
2022-11-24T15:00:26.908Z,7.65
2022-11-24T15:03:29.347Z,7.68
2022-11-24T15:06:31.800Z,7.68
2022-11-24T15:09:49.215Z,7.58
2022-11-24T15:12:58.459Z,7.58
2022-11-24T15:16:14.709Z,7.57
2022-11-24T15:19:18.876Z,7.50
2022-11-24T15:22:41.480Z,7.43
2022-11-24T15:25:44.302Z,7.39
2022-11-24T15:28:46.937Z,7.31
2022-11-24T15:31:52.785Z,7.27
2022-11-24T15:34:55.383Z,7.16
2022-11-24T15:37:58.246Z,7.06
2022-11-24T15:41:01.694Z,7.11
2022-11-24T15:44:04.502Z,7.12
2022-11-24T15:47:07.022Z,7.12
2022-11-24T15:50:10.315Z,7.01
2022-11-24T15:53:21.469Z,6.87
2022-11-24T15:56:32.992Z,6.81
2022-11-24T15:59:36.230Z,6.84
2022-11-24T16:02:39.043Z,6.80
2022-11-24T16:05:42.232Z,6.80
2022-11-24T16:08:44.608Z,6.70
2022-11-24T16:11:47.301Z,6.70
2022-11-24T16:14:49.819Z,6.65
2022-11-24T16:17:52.703Z,6.71
2022-11-24T16:20:55.388Z,6.69
2022-11-24T16:23:58.114Z,6.68
2022-11-24T16:27:00.592Z,6.63
2022-11-24T16:30:04.001Z,6.59
2022-11-24T16:33:06.933Z,6.56
2022-11-24T16:36:09.713Z,6.53
2022-11-24T16:39:12.391Z,6.55
